Time;durP1;ratioP1;P1;durP2;ratioP2;P2;SDS_P1;SDS_P2;PMS_P1;PMS_P2;Temp;Humidity;BMP_temperature;BMP_pressure;BME280_temperature;BME280_humidity;BME280_pressure;Samples;Min_cycle;Max_cycle;Signal;HPM_P1;HPM_P2
2023/04/28 00:00:32;;;;;;;;;;;;;;;9.52;59.05762;101543.3;;;;-67
2023/04/28 00:05:32;;;;;;;;;;;;;;;9.49;59.08594;101536.5;;;;-69
2023/04/28 00:10:33;;;;;;;;;;;;;;;9.47;59.18359;101516.7;;;;-69
2023/04/28 00:15:32;;;;;;;;;;;;;;;9.42;59.29883;101502.5;;;;-69
2023/04/28 00:20:32;;;;;;;;;;;;;;;9.4;59.31738;101498.9;;;;-69
2023/04/28 00:21:31;;;;;;;8.2;4.2;;;;;;;;;;;;;-69
2023/04/28 00:25:32;;;;;;;;;;;;;;;9.37;59.19141;101498.9;;;;-68
2023/04/28 00:30:32;;;;;;;;;;;;;;;9.37;59.10156;101494.3;;;;-69
2023/04/28 00:35:32;;;;;;;;;;;;;;;9.33;59.33105;101485.3;;;;-69
2023/04/28 00:40:39;;;;;;;;;;;;;;;9.29;59.28223;101481.3;;;;-69
2023/04/28 00:45:32;;;;;;;;;;;;;;;9.27;59.40137;101480.6;;;;-69
2023/04/28 00:50:32;;;;;;;;;;;;;;;9.25;59.43066;101481.5;;;;-68
2023/04/28 00:51:32;;;;;;;7.4;4;;;;;;;;;;;;;-69
2023/04/28 00:55:34;;;;;;;;;;;;;;;9.23;59.68359;101475.1;;;;-69
2023/04/28 01:00:32;;;;;;;;;;;;;;;9.2;59.66797;101467.1;;;;-67
2023/04/28 01:05:33;;;;;;;;;;;;;;;9.18;59.47656;101463.7;;;;-68
2023/04/28 01:10:32;;;;;;;;;;;;;;;9.17;59.70703;101459.9;;;;-69
2023/04/28 01:15:32;;;;;;;;;;;;;;;9.15;59.77148;101455.3;;;;-69
2023/04/28 01:20:32;;;;;;;;;;;;;;;9.15;59.75977;101448;;;;-68
2023/04/28 01:21:34;;;;;;;6.9;4.1;;;;;;;;;;;;;-68
2023/04/28 01:25:32;;;;;;;;;;;;;;;9.1;59.80957;101444.4;;;;-70
2023/04/28 01:30:32;;;;;;;;;;;;;;;9.08;59.73047;101432.6;;;;-70
2023/04/28 01:35:32;;;;;;;;;;;;;;;9.03;59.81152;101424.4;;;;-67
2023/04/28 01:40:32;;;;;;;;;;;;;;;9.03;59.81152;101425.9;;;;-70
2023/04/28 01:45:32;;;;;;;;;;;;;;;9.03;59.83398;101429.2;;;;-69
2023/04/28 01:50:33;;;;;;;;;;;;;;;9;60.19434;101421.6;;;;-69
2023/04/28 01:51:36;;;;;;;7.3;4.2;;;;;;;;;;;;;-69
2023/04/28 01:55:32;;;;;;;;;;;;;;;8.95;60.43359;101410.8;;;;-70
2023/04/28 02:00:32;;;;;;;;;;;;;;;8.9;60.59082;101400;;;;-70
2023/04/28 02:05:32;;;;;;;;;;;;;;;8.81;60.99023;101404.2;;;;-69
2023/04/28 02:10:32;;;;;;;;;;;;;;;8.76;61.04883;101396.3;;;;-69
2023/04/28 02:15:32;;;;;;;;;;;;;;;8.73;61.02246;101390.2;;;;-70
2023/04/28 02:20:33;;;;;;;;;;;;;;;8.7;61.08496;101387.2;;;;-70
2023/04/28 02:21:36;;;;;;;8;4.1;;;;;;;;;;;;;-69
2023/04/28 02:25:32;;;;;;;;;;;;;;;8.68;61.19238;101380.3;;;;-68
2023/04/28 02:30:32;;;;;;;;;;;;;;;8.65;61.05566;101373;;;;-69
2023/04/28 02:35:32;;;;;;;;;;;;;;;8.63;61.31738;101368;;;;-69
2023/04/28 02:40:32;;;;;;;;;;;;;;;8.62;61.2168;101357.8;;;;-68
2023/04/28 02:45:32;;;;;;;;;;;;;;;8.58;61.48828;101351.8;;;;-70
2023/04/28 02:50:32;;;;;;;;;;;;;;;8.57;61.62012;101336.4;;;;-69
2023/04/28 02:51:38;;;;;;;8.1;4.4;;;;;;;;;;;;;-69
2023/04/28 02:55:32;;;;;;;;;;;;;;;8.52;61.80176;101322.3;;;;-70
2023/04/28 03:00:32;;;;;;;;;;;;;;;8.49;62.00684;101318.1;;;;-69
2023/04/28 03:05:32;;;;;;;;;;;;;;;8.47;61.86035;101319.4;;;;-71
2023/04/28 03:10:32;;;;;;;;;;;;;;;8.44;62.07813;101304;;;;-70
2023/04/28 03:15:32;;;;;;;;;;;;;;;8.45;62.04492;101293;;;;-68
2023/04/28 03:20:32;;;;;;;;;;;;;;;8.42;62.23047;101287.9;;;;-69
2023/04/28 03:21:39;;;;;;;9.3;4.8;;;;;;;;;;;;;-70
2023/04/28 03:25:34;;;;;;;;;;;;;;;8.4;62.31445;101271.8;;;;-69
2023/04/28 03:30:32;;;;;;;;;;;;;;;8.37;62.27734;101258.3;;;;-71
2023/04/28 03:35:32;;;;;;;;;;;;;;;8.33;62.31641;101260.1;;;;-70
2023/04/28 03:40:32;;;;;;;;;;;;;;;8.3;62.42383;101257.2;;;;-69
2023/04/28 03:45:32;;;;;;;;;;;;;;;8.3;62.47754;101251.2;;;;-69
2023/04/28 03:50:32;;;;;;;;;;;;;;;8.3;62.3457;101249.1;;;;-68
2023/04/28 03:51:40;;;;;;;10.1;4.7;;;;;;;;;;;;;-69
2023/04/28 03:55:32;;;;;;;;;;;;;;;8.29;62.56445;101247.2;;;;-69
2023/04/28 04:00:33;;;;;;;;;;;;;;;8.28;62.60938;101231.9;;;;-70
2023/04/28 04:05:32;;;;;;;;;;;;;;;8.27;62.37402;101214.6;;;;-71
2023/04/28 04:10:32;;;;;;;;;;;;;;;8.29;62.4873;101211.6;;;;-69
2023/04/28 04:15:32;;;;;;;;;;;;;;;8.29;62.69727;101211.1;;;;-69
2023/04/28 04:20:32;;;;;;;;;;;;;;;8.29;62.4873;101214;;;;-69
2023/04/28 04:21:41;;;;;;;10.2;4.8;;;;;;;;;;;;;-71
2023/04/28 04:25:33;;;;;;;;;;;;;;;8.28;62.4873;101211.7;;;;-71
2023/04/28 04:30:32;;;;;;;;;;;;;;;8.29;62.80762;101194.8;;;;-69
2023/04/28 04:35:32;;;;;;;;;;;;;;;8.3;62.7666;101184.4;;;;-71
2023/04/28 04:40:32;;;;;;;;;;;;;;;8.31;62.58008;101190.9;;;;-68
2023/04/28 04:45:32;;;;;;;;;;;;;;;8.33;62.67188;101198.5;;;;-69
2023/04/28 04:50:32;;;;;;;;;;;;;;;8.33;62.75;101196.5;;;;-71
2023/04/28 04:51:42;;;;;;;8.4;4.8;;;;;;;;;;;;;-71
2023/04/28 04:55:32;;;;;;;;;;;;;;;8.34;62.76074;101201.7;;;;-68
2023/04/28 05:00:32;;;;;;;;;;;;;;;8.36;62.55469;101205.3;;;;-69
2023/04/28 05:05:33;;;;;;;;;;;;;;;8.39;62.40234;101210.8;;;;-69
2023/04/28 05:10:32;;;;;;;;;;;;;;;8.39;62.46973;101202.1;;;;-69
2023/04/28 05:15:32;;;;;;;;;;;;;;;8.42;62.49414;101189.3;;;;-68
2023/04/28 05:20:32;;;;;;;;;;;;;;;8.44;62.75293;101149.7;;;;-69
2023/04/28 05:21:43;;;;;;;8.9;4.6;;;;;;;;;;;;;-69
2023/04/28 05:25:32;;;;;;;;;;;;;;;8.47;62.82324;101129.3;;;;-69
2023/04/28 05:30:32;;;;;;;;;;;;;;;8.46;62.89941;101107.5;;;;-69
2023/04/28 05:35:32;;;;;;;;;;;;;;;8.44;63.0625;101101.3;;;;-70
2023/04/28 05:40:32;;;;;;;;;;;;;;;8.4;63.44531;101109.6;;;;-68
2023/04/28 05:45:33;;;;;;;;;;;;;;;8.41;63.32422;101152.8;;;;-69
2023/04/28 05:50:32;;;;;;;;;;;;;;;8.44;62.94141;101183.2;;;;-69
2023/04/28 05:51:44;;;;;;;8.1;4.1;;;;;;;;;;;;;-71
2023/04/28 05:55:32;;;;;;;;;;;;;;;8.44;62.86328;101192.1;;;;-70
2023/04/28 06:00:35;;;;;;;;;;;;;;;8.47;62.7334;101188.3;;;;-69
2023/04/28 06:05:32;;;;;;;;;;;;;;;8.48;62.75977;101185.6;;;;-70
2023/04/28 06:10:33;;;;;;;;;;;;;;;8.49;62.7168;101189.8;;;;-69
2023/04/28 06:15:34;;;;;;;;;;;;;;;8.52;62.76465;101190.5;;;;-69
2023/04/28 06:20:32;;;;;;;;;;;;;;;8.55;62.89063;101185.6;;;;-69
2023/04/28 06:21:49;;;;;;;8.3;4.3;;;;;;;;;;;;;-70
2023/04/28 06:25:32;;;;;;;;;;;;;;;8.57;62.81738;101181.1;;;;-69
2023/04/28 06:30:32;;;;;;;;;;;;;;;8.64;63.01465;101173.8;;;;-70
2023/04/28 06:35:34;;;;;;;;;;;;;;;8.68;62.74414;101163.4;;;;-69
2023/04/28 06:40:32;;;;;;;;;;;;;;;8.73;62.91602;101155.6;;;;-69
2023/04/28 06:45:32;;;;;;;;;;;;;;;8.77;63.20996;101158.2;;;;-70
2023/04/28 06:50:32;;;;;;;;;;;;;;;8.81;63.38281;101157.5;;;;-69
2023/04/28 06:51:46;;;;;;;7.5;4.1;;;;;;;;;;;;;-70
2023/04/28 06:55:32;;;;;;;;;;;;;;;8.85;63.62207;101158.8;;;;-70
2023/04/28 07:00:32;;;;;;;;;;;;;;;8.92;63.74121;101152.5;;;;-70
2023/04/28 07:05:32;;;;;;;;;;;;;;;8.95;64.11328;101138.2;;;;-70
2023/04/28 07:10:34;;;;;;;;;;;;;;;9.04;64.32324;101132.6;;;;-70
2023/04/28 07:15:32;;;;;;;;;;;;;;;9.07;63.91895;101128.9;;;;-69
2023/04/28 07:20:32;;;;;;;;;;;;;;;9.1;64.13379;101121.3;;;;-69
2023/04/28 07:21:46;;;;;;;9.2;4.5;;;;;;;;;;;;;-70
2023/04/28 07:25:32;;;;;;;;;;;;;;;9.13;64.87012;101125;;;;-71
2023/04/28 07:30:32;;;;;;;;;;;;;;;9.22;64.39453;101114.1;;;;-71
2023/04/28 07:35:32;;;;;;;;;;;;;;;9.25;64.18848;101114.9;;;;-69
2023/04/28 07:40:32;;;;;;;;;;;;;;;9.38;64.37402;101114.3;;;;-69
2023/04/28 07:45:32;;;;;;;;;;;;;;;9.45;64.64063;101119.7;;;;-70
2023/04/28 07:50:32;;;;;;;;;;;;;;;9.49;64.65625;101113.8;;;;-69
2023/04/28 07:51:48;;;;;;;12.1;5.1;;;;;;;;;;;;;-69
2023/04/28 07:55:32;;;;;;;;;;;;;;;9.53;65.24023;101107.7;;;;-68
2023/04/28 08:00:35;;;;;;;;;;;;;;;9.59;65.21484;101104.4;;;;-68
2023/04/28 08:05:32;;;;;;;;;;;;;;;9.65;65.34668;101102;;;;-68
2023/04/28 08:10:32;;;;;;;;;;;;;;;9.73;65.73633;101099.3;;;;-69
2023/04/28 08:15:32;;;;;;;;;;;;;;;9.81;65.96875;101096.2;;;;-69
2023/04/28 08:20:32;;;;;;;;;;;;;;;9.88;66.03516;101090.1;;;;-69
2023/04/28 08:21:49;;;;;;;10.6;5.1;;;;;;;;;;;;;-68
2023/04/28 08:25:32;;;;;;;;;;;;;;;9.95;66.0127;101092.4;;;;-68
2023/04/28 08:30:32;;;;;;;;;;;;;;;10.06;66.17383;101093.3;;;;-69
2023/04/28 08:35:32;;;;;;;;;;;;;;;10.17;66.3916;101094.9;;;;-69
2023/04/28 08:40:33;;;;;;;;;;;;;;;10.25;66.37891;101088.3;;;;-69
2023/04/28 08:45:33;;;;;;;;;;;;;;;10.29;66.6875;101083.5;;;;-70
2023/04/28 08:50:44;;;;;;;;;;;;;;;10.37;66.60938;101088.2;;;;-70
2023/04/28 08:51:53;;;;;;;11.5;5.5;;;;;;;;;;;;;-69
2023/04/28 08:55:32;;;;;;;;;;;;;;;10.47;66.74609;101079.6;;;;-71
2023/04/28 09:00:35;;;;;;;;;;;;;;;10.59;67.20898;101075;;;;-70
2023/04/28 09:05:32;;;;;;;;;;;;;;;10.71;67.49414;101071.1;;;;-73
2023/04/28 09:10:37;;;;;;;;;;;;;;;10.82;67.93359;101069.2;;;;-73
2023/04/28 09:15:36;;;;;;;;;;;;;;;10.86;68.30566;101068.9;;;;-74
2023/04/28 09:20:34;;;;;;;;;;;;;;;10.88;68.61035;101067.7;;;;-73
2023/04/28 09:21:56;;;;;;;12.5;6.4;;;;;;;;;;;;;-73
2023/04/28 09:25:32;;;;;;;;;;;;;;;10.88;70.53223;101064;;;;-73
2023/04/28 09:30:44;;;;;;;;;;;;;;;10.97;70.22266;101067.1;;;;-74
2023/04/28 09:35:46;;;;;;;;;;;;;;;11.02;70.84277;101064.7;;;;-75
2023/04/28 09:40:33;;;;;;;;;;;;;;;11.09;72.1416;101064.6;;;;-73
2023/04/28 09:45:44;;;;;;;;;;;;;;;11.14;71.96289;101060.5;;;;-76
2023/04/28 09:50:42;;;;;;;;;;;;;;;11.29;72.15332;101052.3;;;;-68
2023/04/28 09:51:54;;;;;;;13.8;8.1;;;;;;;;;;;;;-71
2023/04/28 09:55:33;;;;;;;;;;;;;;;11.45;72.02539;101047.3;;;;-69
2023/04/28 10:00:36;;;;;;;;;;;;;;;11.66;72.28223;101049.2;;;;-70
2023/04/28 10:05:32;;;;;;;;;;;;;;;11.82;71.10742;101041.9;;;;-71
2023/04/28 10:10:32;;;;;;;;;;;;;;;11.95;71.40527;101041.2;;;;-70
2023/04/28 10:15:33;;;;;;;;;;;;;;;12;72.07031;101041;;;;-70
2023/04/28 10:20:32;;;;;;;;;;;;;;;12.07;70.93555;101032.7;;;;-70
2023/04/28 10:22:05;;;;;;;13.7;8;;;;;;;;;;;;;-71
2023/04/28 10:25:34;;;;;;;;;;;;;;;12.17;71.18555;101031.2;;;;-69
2023/04/28 10:30:33;;;;;;;;;;;;;;;12.28;71.625;101029.9;;;;-70
2023/04/28 10:35:47;;;;;;;;;;;;;;;12.4;71.7793;101029.3;;;;-69
2023/04/28 10:40:39;;;;;;;;;;;;;;;12.5;72.12988;101028.5;;;;-70
2023/04/28 10:45:43;;;;;;;;;;;;;;;12.57;74.93848;101030.1;;;;-71
2023/04/28 10:50:32;;;;;;;;;;;;;;;12.61;74.24121;101030.8;;;;-70
2023/04/28 10:52:00;;;;;;;13.8;7.6;;;;;;;;;;;;;-68
2023/04/28 10:55:42;;;;;;;;;;;;;;;12.63;74.13477;101032.3;;;;-74
2023/04/28 11:00:35;;;;;;;;;;;;;;;12.62;74.60059;101027.9;;;;-68
2023/04/28 11:05:33;;;;;;;;;;;;;;;12.63;74.47949;101029.3;;;;-69
2023/04/28 11:10:42;;;;;;;;;;;;;;;12.67;74.85352;101030.1;;;;-69
2023/04/28 11:15:32;;;;;;;;;;;;;;;12.67;75.93555;101027.6;;;;-70
2023/04/28 11:20:32;;;;;;;;;;;;;;;12.73;74.42969;101025.1;;;;-69
2023/04/28 11:21:59;;;;;;;13.4;8.5;;;;;;;;;;;;;-69
2023/04/28 11:25:42;;;;;;;;;;;;;;;12.77;75.55176;101020.3;;;;-70
2023/04/28 11:30:34;;;;;;;;;;;;;;;12.83;75.85156;101026.5;;;;-70
2023/04/28 11:35:43;;;;;;;;;;;;;;;12.9;75.91895;101019.3;;;;-69
2023/04/28 11:40:32;;;;;;;;;;;;;;;13.04;76.38965;101016.8;;;;-69
2023/04/28 11:45:32;;;;;;;;;;;;;;;13.2;75.2793;101015.6;;;;-69
2023/04/28 11:50:44;;;;;;;;;;;;;;;13.26;75.41113;101014.8;;;;-69
2023/04/28 11:52:06;;;;;;;17.8;10.4;;;;;;;;;;;;;-70
2023/04/28 11:55:32;;;;;;;;;;;;;;;13.35;76.19824;101022.6;;;;-70
2023/04/28 12:00:33;;;;;;;;;;;;;;;13.44;76.34766;101016.9;;;;-70
2023/04/28 12:05:34;;;;;;;;;;;;;;;13.54;77.28906;101014.9;;;;-70
2023/04/28 12:10:32;;;;;;;;;;;;;;;13.65;77.31934;101011.3;;;;-69
2023/04/28 12:15:42;;;;;;;;;;;;;;;13.78;78.55762;101011.9;;;;-70
2023/04/28 12:20:42;;;;;;;;;;;;;;;13.85;79.15039;101011.2;;;;-71
2023/04/28 12:22:07;;;;;;;11;6.2;;;;;;;;;;;;;-70
2023/04/28 12:25:42;;;;;;;;;;;;;;;13.86;78.54004;101019.1;;;;-72
2023/04/28 12:30:37;;;;;;;;;;;;;;;13.77;79.7168;101025.5;;;;-71
2023/04/28 12:35:35;;;;;;;;;;;;;;;13.69;80.08105;101035.3;;;;-70
2023/04/28 12:40:32;;;;;;;;;;;;;;;13.69;80.64844;101037.9;;;;-68
2023/04/28 12:45:33;;;;;;;;;;;;;;;13.63;81.18359;101034.8;;;;-70
2023/04/28 12:50:32;;;;;;;;;;;;;;;13.55;82.16113;101041.7;;;;-74
2023/04/28 12:52:06;;;;;;;6.3;3.4;;;;;;;;;;;;;-77
2023/04/28 12:55:32;;;;;;;;;;;;;;;13.5;82.4834;101043.3;;;;-69
2023/04/28 13:00:32;;;;;;;;;;;;;;;13.53;80.94434;101050.3;;;;-70
2023/04/28 13:05:33;;;;;;;;;;;;;;;13.5;82.15137;101057.5;;;;-69
2023/04/28 13:10:33;;;;;;;;;;;;;;;13.52;82.47754;101058.7;;;;-70
2023/04/28 13:15:32;;;;;;;;;;;;;;;13.48;81.36719;101056.6;;;;-70
2023/04/28 13:20:32;;;;;;;;;;;;;;;13.42;82.58105;101060.9;;;;-69
2023/04/28 13:22:08;;;;;;;13.6;5;;;;;;;;;;;;;-69
2023/04/28 13:25:32;;;;;;;;;;;;;;;13.39;83.80957;101058.1;;;;-69
2023/04/28 13:30:33;;;;;;;;;;;;;;;13.36;83.08301;101058.6;;;;-69
2023/04/28 13:35:32;;;;;;;;;;;;;;;13.38;83.85254;101057.9;;;;-70
2023/04/28 13:40:32;;;;;;;;;;;;;;;13.45;82.11914;101053.1;;;;-69
2023/04/28 13:45:33;;;;;;;;;;;;;;;13.5;82.2959;101057.4;;;;-69
2023/04/28 13:50:32;;;;;;;;;;;;;;;13.48;82.49121;101059.3;;;;-68
2023/04/28 13:52:13;;;;;;;17.9;7.1;;;;;;;;;;;;;-70
2023/04/28 13:55:32;;;;;;;;;;;;;;;13.54;81.23438;101058.6;;;;-69
2023/04/28 14:00:32;;;;;;;;;;;;;;;13.55;81.66992;101058.8;;;;-72
2023/04/28 14:05:32;;;;;;;;;;;;;;;13.57;81.99609;101056.2;;;;-72
2023/04/28 14:10:32;;;;;;;;;;;;;;;13.66;81.93555;101063.5;;;;-69
2023/04/28 14:15:33;;;;;;;;;;;;;;;13.74;82.59863;101070.6;;;;-74
2023/04/28 14:20:33;;;;;;;;;;;;;;;13.85;81.02344;101075.4;;;;-69
2023/04/28 14:22:11;;;;;;;18.6;8.3;;;;;;;;;;;;;-70
2023/04/28 14:25:36;;;;;;;;;;;;;;;13.9;81.16699;101068.5;;;;-68
2023/04/28 14:30:32;;;;;;;;;;;;;;;13.97;80.55469;101070.3;;;;-69
2023/04/28 14:35:33;;;;;;;;;;;;;;;14.01;79.80469;101075;;;;-69
2023/04/28 14:40:35;;;;;;;;;;;;;;;14;80.40332;101074.6;;;;-69
2023/04/28 14:45:32;;;;;;;;;;;;;;;14.02;79.82813;101070.2;;;;-68
2023/04/28 14:50:32;;;;;;;;;;;;;;;14;80.28125;101073.8;;;;-69
2023/04/28 14:52:14;;;;;;;14.7;7.8;;;;;;;;;;;;;-69
2023/04/28 14:55:33;;;;;;;;;;;;;;;13.97;80.24219;101073.4;;;;-70
2023/04/28 15:00:34;;;;;;;;;;;;;;;13.96;79.5498;101077.2;;;;-69
2023/04/28 15:05:32;;;;;;;;;;;;;;;13.9;79.97461;101076.9;;;;-70
2023/04/28 15:10:40;;;;;;;;;;;;;;;13.85;79.70801;101081.8;;;;-68
2023/04/28 15:15:32;;;;;;;;;;;;;;;13.79;79.46191;101085.3;;;;-70
2023/04/28 15:20:32;;;;;;;;;;;;;;;13.72;79.38379;101092.7;;;;-69
2023/04/28 15:22:16;;;;;;;14;6.9;;;;;;;;;;;;;-71
2023/04/28 15:25:32;;;;;;;;;;;;;;;13.71;79.7168;101092.5;;;;-69
2023/04/28 15:30:32;;;;;;;;;;;;;;;13.66;79.9873;101099.1;;;;-70
2023/04/28 15:35:32;;;;;;;;;;;;;;;13.66;79.47461;101108.8;;;;-70
2023/04/28 15:40:32;;;;;;;;;;;;;;;13.68;78.90723;101104.2;;;;-68
2023/04/28 15:45:33;;;;;;;;;;;;;;;13.7;79.0459;101108.5;;;;-69
2023/04/28 15:50:33;;;;;;;;;;;;;;;13.7;78.66504;101125.2;;;;-71
2023/04/28 15:52:22;;;;;;;14.2;7;;;;;;;;;;;;;-70
2023/04/28 15:55:32;;;;;;;;;;;;;;;13.7;78.58789;101124.1;;;;-71
2023/04/28 16:00:32;;;;;;;;;;;;;;;13.7;78.77734;101126.4;;;;-68
2023/04/28 16:05:32;;;;;;;;;;;;;;;13.73;78.28223;101133.3;;;;-70
2023/04/28 16:10:32;;;;;;;;;;;;;;;13.74;78.37305;101138.1;;;;-69
2023/04/28 16:15:33;;;;;;;;;;;;;;;13.72;78.12402;101141.4;;;;-69
2023/04/28 16:20:32;;;;;;;;;;;;;;;13.69;77.95215;101147;;;;-68
2023/04/28 16:22:22;;;;;;;15.3;7.7;;;;;;;;;;;;;-69
2023/04/28 16:25:32;;;;;;;;;;;;;;;13.64;77.59668;101155.8;;;;-70
2023/04/28 16:30:32;;;;;;;;;;;;;;;13.61;77.98047;101158.4;;;;-67
2023/04/28 16:35:32;;;;;;;;;;;;;;;13.55;78.19531;101161.6;;;;-70
2023/04/28 16:40:32;;;;;;;;;;;;;;;13.55;78.19336;101161.2;;;;-69
2023/04/28 16:45:32;;;;;;;;;;;;;;;13.53;78.24609;101164.7;;;;-70
2023/04/28 16:50:32;;;;;;;;;;;;;;;13.51;77.93066;101162.2;;;;-69
2023/04/28 16:52:26;;;;;;;15.9;9.1;;;;;;;;;;;;;-70
2023/04/28 16:55:41;;;;;;;;;;;;;;;13.47;78.10254;101172.7;;;;-70
2023/04/28 17:00:32;;;;;;;;;;;;;;;13.42;78.47168;101180.7;;;;-69
2023/04/28 17:05:32;;;;;;;;;;;;;;;13.34;78.14648;101183.6;;;;-69
2023/04/28 17:10:32;;;;;;;;;;;;;;;13.28;78.28027;101184.9;;;;-69
2023/04/28 17:15:32;;;;;;;;;;;;;;;13.23;78.02539;101189.6;;;;-71
2023/04/28 17:20:32;;;;;;;;;;;;;;;13.17;78.05859;101188.9;;;;-69
2023/04/28 17:22:25;;;;;;;24;11.7;;;;;;;;;;;;;-68
2023/04/28 17:25:32;;;;;;;;;;;;;;;13.07;78.7666;101187.2;;;;-69
2023/04/28 17:30:33;;;;;;;;;;;;;;;12.99;78.09668;101186.7;;;;-70
2023/04/28 17:35:32;;;;;;;;;;;;;;;12.9;78.23438;101192.7;;;;-70
2023/04/28 17:40:32;;;;;;;;;;;;;;;12.82;78.54297;101193;;;;-69
2023/04/28 17:45:32;;;;;;;;;;;;;;;12.73;78.31543;101200.9;;;;-71
2023/04/28 17:50:32;;;;;;;;;;;;;;;12.65;78.29102;101208;;;;-68
2023/04/28 17:52:27;;;;;;;25.7;11.7;;;;;;;;;;;;;-68
2023/04/28 17:55:32;;;;;;;;;;;;;;;12.58;78.23242;101216;;;;-70
2023/04/28 18:00:34;;;;;;;;;;;;;;;12.5;78.49707;101222.9;;;;-69
2023/04/28 18:05:33;;;;;;;;;;;;;;;12.43;77.90625;101226.7;;;;-71
2023/04/28 18:10:32;;;;;;;;;;;;;;;12.38;77.54004;101230;;;;-69
2023/04/28 18:15:32;;;;;;;;;;;;;;;12.32;77.4082;101233.8;;;;-68
2023/04/28 18:20:32;;;;;;;;;;;;;;;12.23;77.00293;101241.3;;;;-67
2023/04/28 18:22:30;;;;;;;28.1;12.5;;;;;;;;;;;;;-69
2023/04/28 18:25:34;;;;;;;;;;;;;;;12.16;77.67969;101248.7;;;;-73
2023/04/28 18:35:32;;;;;;;;;;;;;;;11.99;77.38379;101264.4;;;;-75
2023/04/28 18:40:36;;;;;;;;;;;;;;;11.89;76.84473;101261.9;;;;-76
2023/04/28 18:45:36;;;;;;;;;;;;;;;11.82;77.09961;101269;;;;-73
2023/04/28 18:50:35;;;;;;;;;;;;;;;11.74;77.45215;101269;;;;-75
2023/04/28 18:52:31;;;;;;;27.2;12;;;;;;;;;;;;;-74
2023/04/28 18:55:36;;;;;;;;;;;;;;;11.64;76.63281;101276.3;;;;-75
2023/04/28 19:00:32;;;;;;;;;;;;;;;11.57;76.52344;101284.7;;;;-74
2023/04/28 19:05:36;;;;;;;;;;;;;;;11.51;76.59961;101294.9;;;;-73
2023/04/28 19:10:38;;;;;;;;;;;;;;;11.46;77.33398;101303.4;;;;-73
2023/04/28 19:15:35;;;;;;;;;;;;;;;11.38;76.5332;101309.8;;;;-74
2023/04/28 19:20:33;;;;;;;;;;;;;;;11.31;76.73145;101319.3;;;;-74
2023/04/28 19:22:37;;;;;;;27.8;11.4;;;;;;;;;;;;;-74
2023/04/28 19:25:35;;;;;;;;;;;;;;;11.25;76.64355;101326.4;;;;-74
2023/04/28 19:30:32;;;;;;;;;;;;;;;11.2;76.92285;101333.5;;;;-73
2023/04/28 19:35:32;;;;;;;;;;;;;;;11.13;76.47754;101341.8;;;;-72
2023/04/28 19:40:33;;;;;;;;;;;;;;;11.07;76.82422;101354;;;;-73
2023/04/28 19:45:33;;;;;;;;;;;;;;;11.01;76.60059;101371;;;;-76
2023/04/28 19:50:32;;;;;;;;;;;;;;;10.94;76.72168;101370.7;;;;-73
2023/04/28 19:52:37;;;;;;;23.1;10.4;;;;;;;;;;;;;-74
2023/04/28 19:55:35;;;;;;;;;;;;;;;10.89;76.6582;101376.4;;;;-74
2023/04/28 20:00:32;;;;;;;;;;;;;;;10.83;76.86816;101381.6;;;;-68
2023/04/28 20:05:39;;;;;;;;;;;;;;;10.78;76.88281;101388.3;;;;-72
2023/04/28 20:10:32;;;;;;;;;;;;;;;10.73;76.56445;101392.8;;;;-68
2023/04/28 20:15:42;;;;;;;;;;;;;;;10.7;76.96777;101402;;;;-69
2023/04/28 20:20:32;;;;;;;;;;;;;;;10.65;77.24805;101410;;;;-68
2023/04/28 20:22:36;;;;;;;16.7;8.7;;;;;;;;;;;;;-68
2023/04/28 20:25:32;;;;;;;;;;;;;;;10.6;76.87402;101415.4;;;;-69
2023/04/28 20:30:33;;;;;;;;;;;;;;;10.55;76.80762;101421;;;;-70
2023/04/28 20:35:32;;;;;;;;;;;;;;;10.49;76.82031;101424.6;;;;-70
2023/04/28 20:40:33;;;;;;;;;;;;;;;10.45;76.7793;101437.6;;;;-68
2023/04/28 20:45:33;;;;;;;;;;;;;;;10.41;76.90527;101439.7;;;;-70
2023/04/28 20:50:32;;;;;;;;;;;;;;;10.37;76.8457;101444.7;;;;-68
2023/04/28 20:52:38;;;;;;;12.7;7;;;;;;;;;;;;;-68
2023/04/28 20:55:32;;;;;;;;;;;;;;;10.34;76.93652;101451.8;;;;-68
2023/04/28 21:00:32;;;;;;;;;;;;;;;10.3;76.84375;101461;;;;-67
2023/04/28 21:05:32;;;;;;;;;;;;;;;10.26;76.79102;101467.3;;;;-68
2023/04/28 21:10:32;;;;;;;;;;;;;;;10.23;76.77539;101476;;;;-69
2023/04/28 21:15:32;;;;;;;;;;;;;;;10.21;77.02539;101484.6;;;;-69
2023/04/28 21:20:32;;;;;;;;;;;;;;;10.18;77.13086;101490.6;;;;-69
2023/04/28 21:22:40;;;;;;;12.4;6.5;;;;;;;;;;;;;-68
2023/04/28 21:25:32;;;;;;;;;;;;;;;10.17;77.12891;101488.2;;;;-70
2023/04/28 21:30:32;;;;;;;;;;;;;;;10.13;77.75391;101488.6;;;;-68
2023/04/28 21:35:32;;;;;;;;;;;;;;;10.11;77.53906;101496.1;;;;-69
2023/04/28 21:40:32;;;;;;;;;;;;;;;10.08;77.74414;101496.3;;;;-68
2023/04/28 21:45:32;;;;;;;;;;;;;;;10.06;77.50879;101503.5;;;;-68
2023/04/28 21:50:32;;;;;;;;;;;;;;;10.04;77.61621;101504.6;;;;-68
2023/04/28 21:52:41;;;;;;;16.5;8.1;;;;;;;;;;;;;-68
2023/04/28 21:55:32;;;;;;;;;;;;;;;10.02;77.25879;101507.2;;;;-68
2023/04/28 22:00:32;;;;;;;;;;;;;;;10.01;77.5332;101514.5;;;;-70
2023/04/28 22:05:32;;;;;;;;;;;;;;;10.01;77.65332;101518.1;;;;-69
2023/04/28 22:10:32;;;;;;;;;;;;;;;9.96;77.43555;101524.9;;;;-68
2023/04/28 22:15:33;;;;;;;;;;;;;;;9.93;77.68457;101525.6;;;;-69
2023/04/28 22:20:32;;;;;;;;;;;;;;;9.92;77.80273;101528.2;;;;-70
2023/04/28 22:22:44;;;;;;;19.7;9.7;;;;;;;;;;;;;-69
2023/04/28 22:25:32;;;;;;;;;;;;;;;9.89;77.40039;101531.7;;;;-69
2023/04/28 22:30:33;;;;;;;;;;;;;;;9.87;77.51855;101537.4;;;;-70
2023/04/28 22:35:32;;;;;;;;;;;;;;;9.85;77.01758;101547.6;;;;-71
2023/04/28 22:40:32;;;;;;;;;;;;;;;9.83;77.26855;101553.8;;;;-69
2023/04/28 22:45:32;;;;;;;;;;;;;;;9.81;77.07813;101551.1;;;;-69
2023/04/28 22:50:34;;;;;;;;;;;;;;;9.79;77.01758;101549.2;;;;-68
2023/04/28 22:52:44;;;;;;;21.8;11;;;;;;;;;;;;;-68
2023/04/28 22:55:32;;;;;;;;;;;;;;;9.76;77.55469;101554.8;;;;-70
2023/04/28 23:00:32;;;;;;;;;;;;;;;9.74;77.69531;101557.3;;;;-69
2023/04/28 23:05:32;;;;;;;;;;;;;;;9.72;77.4375;101559.3;;;;-67
2023/04/28 23:10:32;;;;;;;;;;;;;;;9.72;76.97168;101561.1;;;;-70
2023/04/28 23:15:32;;;;;;;;;;;;;;;9.68;77.43066;101572.4;;;;-69
2023/04/28 23:20:32;;;;;;;;;;;;;;;9.67;76.97461;101574.5;;;;-68
2023/04/28 23:22:46;;;;;;;23.7;10.8;;;;;;;;;;;;;-69
2023/04/28 23:25:32;;;;;;;;;;;;;;;9.65;77.22559;101572.6;;;;-69
2023/04/28 23:30:35;;;;;;;;;;;;;;;9.65;76.96094;101578.8;;;;-69
2023/04/28 23:35:32;;;;;;;;;;;;;;;9.63;77.63184;101576.8;;;;-70
2023/04/28 23:40:32;;;;;;;;;;;;;;;9.62;77.18652;101582.9;;;;-69
2023/04/28 23:45:32;;;;;;;;;;;;;;;9.61;77.20703;101582.5;;;;-68
2023/04/28 23:50:35;;;;;;;;;;;;;;;9.61;77.28418;101596.3;;;;-69
2023/04/28 23:52:47;;;;;;;19.6;9.9;;;;;;;;;;;;;-69
2023/04/28 23:55:32;;;;;;;;;;;;;;;9.59;76.94922;101605.1;;;;-69
